createdAt,value
2022-08-19T00:00:25.540Z,45.87
2022-08-19T00:03:08.063Z,45.92
2022-08-19T00:05:36.939Z,45.63
2022-08-19T00:08:05.132Z,45.84
2022-08-19T00:10:35.209Z,45.60
2022-08-19T00:13:02.449Z,45.58
2022-08-19T00:15:29.562Z,45.63
2022-08-19T00:18:02.459Z,45.95
2022-08-19T00:20:31.258Z,45.26
2022-08-19T00:23:10.163Z,45.65
2022-08-19T00:25:37.668Z,45.79
2022-08-19T00:28:08.228Z,45.38
2022-08-19T00:30:37.924Z,45.25
2022-08-19T00:33:05.024Z,45.10
2022-08-19T00:35:32.511Z,45.42
2022-08-19T00:38:01.095Z,45.20
2022-08-19T00:40:30.301Z,45.44
2022-08-19T00:42:57.561Z,45.08
2022-08-19T00:45:26.745Z,45.02
2022-08-19T00:47:57.304Z,45.23
2022-08-19T00:50:25.175Z,44.94
2022-08-19T00:52:53.690Z,44.84
2022-08-19T00:55:25.318Z,45.10
2022-08-19T00:58:14.190Z,44.88
2022-08-19T01:00:41.893Z,45.12
2022-08-19T01:03:11.918Z,45.20
2022-08-19T01:05:42.566Z,44.76
2022-08-19T01:08:12.344Z,44.94
2022-08-19T01:10:43.853Z,44.93
2022-08-19T01:13:23.257Z,45.02
2022-08-19T01:16:04.116Z,44.83
2022-08-19T01:18:34.844Z,44.96
2022-08-19T01:21:07.350Z,44.60
2022-08-19T01:23:48.206Z,44.52
2022-08-19T01:26:17.673Z,44.56
2022-08-19T01:28:59.650Z,44.82
2022-08-19T01:31:33.108Z,44.60
2022-08-19T01:34:00.768Z,44.88
2022-08-19T01:36:29.210Z,45.09
2022-08-19T01:38:56.820Z,45.05
2022-08-19T01:41:25.610Z,44.88
2022-08-19T01:44:12.347Z,44.64
2022-08-19T01:46:41.386Z,45.18
2022-08-19T01:49:09.207Z,44.99
2022-08-19T01:51:39.981Z,45.04
2022-08-19T01:54:11.768Z,44.97
2022-08-19T01:56:39.815Z,44.85
2022-08-19T01:59:12.411Z,44.76
2022-08-19T02:01:47.055Z,45.36
2022-08-19T02:04:15.121Z,45.28
2022-08-19T02:06:42.294Z,45.24
2022-08-19T02:09:09.534Z,45.12
2022-08-19T02:11:37.702Z,45.42
2022-08-19T02:14:07.003Z,45.58
2022-08-19T02:16:39.766Z,45.65
2022-08-19T02:19:07.148Z,45.54
2022-08-19T02:21:51.832Z,45.27
2022-08-19T02:24:22.824Z,45.38
2022-08-19T02:26:52.585Z,45.68
2022-08-19T02:32:26.949Z,45.11
2022-08-19T02:34:54.055Z,45.36
2022-08-19T02:37:39.833Z,45.13
2022-08-19T02:40:12.504Z,46.03
2022-08-19T02:42:40.672Z,45.33
2022-08-19T02:45:08.763Z,45.24
2022-08-19T02:47:35.862Z,45.39
2022-08-19T02:50:03.324Z,45.76
2022-08-19T02:52:30.581Z,45.78
2022-08-19T02:54:58.693Z,45.44
2022-08-19T02:57:26.312Z,45.57
2022-08-19T02:59:53.418Z,45.64
2022-08-19T03:02:20.403Z,45.61
2022-08-19T03:04:47.480Z,45.48
2022-08-19T03:07:16.292Z,45.99
2022-08-19T03:09:43.692Z,45.76
2022-08-19T03:12:11.102Z,45.84
2022-08-19T03:14:38.264Z,45.83
2022-08-19T03:17:05.599Z,45.78
2022-08-19T03:19:32.711Z,46.19
2022-08-19T03:21:59.876Z,46.33
2022-08-19T03:24:26.927Z,45.86
2022-08-19T03:26:58.363Z,46.04
2022-08-19T03:29:30.799Z,46.52
2022-08-19T03:32:01.586Z,46.30
2022-08-19T03:34:30.327Z,46.60
2022-08-19T03:36:58.960Z,46.79
2022-08-19T03:39:26.143Z,46.86
2022-08-19T03:42:30.205Z,47.08
2022-08-19T03:44:40.845Z,46.41
2022-08-19T03:47:07.807Z,46.53
2022-08-19T03:49:36.852Z,47.01
2022-08-19T03:52:08.410Z,46.87
2022-08-19T03:54:35.881Z,47.06
2022-08-19T03:57:04.013Z,47.15
2022-08-19T03:59:33.368Z,47.06
2022-08-19T04:02:01.353Z,46.68
2022-08-19T04:04:29.198Z,47.42
2022-08-19T04:06:56.855Z,47.01
2022-08-19T04:09:23.881Z,47.16
2022-08-19T04:11:55.552Z,47.00
2022-08-19T04:14:25.771Z,47.06
2022-08-19T04:16:52.940Z,47.30
2022-08-19T04:19:20.001Z,47.59
2022-08-19T04:21:48.295Z,47.74
2022-08-19T04:24:15.258Z,47.43
2022-08-19T04:26:42.590Z,47.02
2022-08-19T04:29:13.787Z,47.85
2022-08-19T04:31:41.152Z,47.90
2022-08-19T04:34:09.255Z,47.81
2022-08-19T04:36:37.025Z,47.96
2022-08-19T04:39:06.931Z,47.41
2022-08-19T04:41:52.319Z,47.50
2022-08-19T04:44:19.592Z,47.76
2022-08-19T04:46:50.912Z,48.11
2022-08-19T04:49:20.240Z,47.93
2022-08-19T04:51:48.863Z,47.71
2022-08-19T04:54:23.934Z,48.36
2022-08-19T04:57:04.707Z,48.09
2022-08-19T04:59:31.697Z,48.10
2022-08-19T05:01:58.757Z,48.02
2022-08-19T05:04:25.735Z,48.38
2022-08-19T05:06:54.490Z,47.94
2022-08-19T05:09:28.002Z,48.18
2022-08-19T05:11:55.364Z,47.81
2022-08-19T05:14:22.856Z,47.79
2022-08-19T05:16:50.007Z,48.12
2022-08-19T05:19:35.495Z,48.03
2022-08-19T05:22:21.236Z,48.25
2022-08-19T05:25:11.258Z,48.09
2022-08-19T05:27:35.330Z,48.14
2022-08-19T05:30:02.666Z,48.37
2022-08-19T05:32:29.969Z,48.09
2022-08-19T05:34:57.175Z,47.82
2022-08-19T05:37:24.452Z,48.43
2022-08-19T05:39:51.772Z,48.36
2022-08-19T05:42:21.257Z,47.96
2022-08-19T05:44:50.243Z,47.89
2022-08-19T05:47:20.130Z,48.35
2022-08-19T05:49:47.737Z,48.59
2022-08-19T05:52:18.600Z,48.85
2022-08-19T05:54:51.026Z,48.45
2022-08-19T05:57:19.847Z,48.81
2022-08-19T05:59:52.733Z,48.21
2022-08-19T06:02:20.004Z,48.91
2022-08-19T06:04:47.110Z,48.58
2022-08-19T06:07:14.259Z,48.45
2022-08-19T06:09:41.522Z,48.67
2022-08-19T06:12:35.582Z,48.59
2022-08-19T06:15:10.859Z,48.42
2022-08-19T06:17:38.188Z,48.39
2022-08-19T06:20:06.426Z,48.78
2022-08-19T06:22:33.476Z,48.56
2022-08-19T06:25:00.533Z,48.74
2022-08-19T06:27:27.563Z,48.91
2022-08-19T06:29:55.237Z,48.81
2022-08-19T06:32:22.395Z,48.68
2022-08-19T06:34:49.546Z,48.88
2022-08-19T06:37:16.582Z,48.64
2022-08-19T06:39:46.633Z,48.35
2022-08-19T06:42:17.626Z,49.01
2022-08-19T06:44:48.992Z,48.96
2022-08-19T06:47:24.021Z,48.58
2022-08-19T06:50:03.226Z,48.49
2022-08-19T06:52:31.916Z,48.79
2022-08-19T06:55:06.123Z,48.57
2022-08-19T06:57:34.578Z,48.21
2022-08-19T07:00:01.756Z,48.11
2022-08-19T07:02:28.912Z,47.53
2022-08-19T07:04:58.487Z,48.05
2022-08-19T07:07:26.195Z,47.00
2022-08-19T07:09:59.847Z,46.36
2022-08-19T07:12:38.044Z,46.20
2022-08-19T07:15:06.285Z,46.39
2022-08-19T07:17:34.592Z,45.94
2022-08-19T07:20:05.167Z,45.82
2022-08-19T07:22:35.375Z,45.71
2022-08-19T07:25:04.872Z,45.66
2022-08-19T07:27:33.487Z,45.44
2022-08-19T07:30:00.973Z,45.10
2022-08-19T07:32:28.072Z,44.99
2022-08-19T07:34:55.746Z,44.65
2022-08-19T07:37:27.339Z,44.63
2022-08-19T07:39:56.569Z,44.69
2022-08-19T07:42:23.766Z,44.15
2022-08-19T07:44:51.168Z,44.52
2022-08-19T07:47:50.190Z,44.47
2022-08-19T07:50:08.014Z,44.25
2022-08-19T07:52:35.888Z,44.46
2022-08-19T07:55:05.072Z,44.10
2022-08-19T07:57:32.340Z,44.42
2022-08-19T07:59:59.978Z,44.23
2022-08-19T08:02:26.969Z,44.31
2022-08-19T08:05:12.419Z,44.43
2022-08-19T08:07:58.842Z,43.80
2022-08-19T08:10:26.275Z,44.10
2022-08-19T08:13:10.249Z,43.63
2022-08-19T08:15:43.152Z,43.95
2022-08-19T08:18:12.023Z,43.70
2022-08-19T08:20:39.793Z,43.63
2022-08-19T08:23:26.989Z,43.36
2022-08-19T08:25:56.741Z,43.47
2022-08-19T08:28:29.504Z,43.31
2022-08-19T08:31:00.705Z,43.62
2022-08-19T08:33:33.805Z,43.46
2022-08-19T08:36:04.993Z,43.61
2022-08-19T08:38:39.003Z,43.10
2022-08-19T08:41:11.340Z,42.76
2022-08-19T08:43:42.562Z,43.50
2022-08-19T08:46:42.117Z,42.53
2022-08-19T08:49:14.990Z,42.96
2022-08-19T08:51:47.637Z,42.68
2022-08-19T08:54:16.356Z,42.75
2022-08-19T08:56:44.132Z,42.82
2022-08-19T08:59:22.335Z,42.22
2022-08-19T09:01:49.710Z,42.70
2022-08-19T09:04:16.855Z,42.36
2022-08-19T09:07:18.543Z,42.08
2022-08-19T09:10:09.986Z,42.87
2022-08-19T09:13:15.269Z,41.60
2022-08-19T09:15:45.846Z,41.95
2022-08-19T09:18:19.280Z,41.88
2022-08-19T09:20:48.539Z,41.36
2022-08-19T09:23:15.880Z,40.66
2022-08-19T09:25:43.026Z,40.00
2022-08-19T09:28:15.052Z,40.23
2022-08-19T09:30:49.449Z,40.20
2022-08-19T09:33:17.255Z,40.53
2022-08-19T09:35:53.064Z,40.27
2022-08-19T09:38:21.178Z,40.12
2022-08-19T09:40:48.214Z,39.64
2022-08-19T09:43:15.608Z,39.68
2022-08-19T09:46:02.903Z,38.86
2022-08-19T09:48:33.716Z,38.94
2022-08-19T09:51:18.037Z,37.83
2022-08-19T09:53:51.134Z,38.49
2022-08-19T09:56:21.240Z,38.89
2022-08-19T09:58:48.867Z,38.75
2022-08-19T10:01:24.141Z,37.46
2022-08-19T10:03:54.622Z,38.21
2022-08-19T10:06:23.003Z,38.44
2022-08-19T10:09:11.941Z,38.92
2022-08-19T10:11:46.875Z,39.16
2022-08-19T10:14:23.654Z,38.40
2022-08-19T10:16:53.004Z,37.99
2022-08-19T10:19:25.726Z,38.03
2022-08-19T10:21:54.382Z,37.86
2022-08-19T10:24:25.447Z,37.38
2022-08-19T10:26:55.801Z,37.62
2022-08-19T10:29:32.171Z,37.31
2022-08-19T10:32:03.160Z,37.06
2022-08-19T10:34:30.790Z,37.82
2022-08-19T10:37:00.924Z,37.55
2022-08-19T10:39:32.816Z,37.44
2022-08-19T10:42:14.578Z,37.02
2022-08-19T10:44:42.309Z,36.79
2022-08-19T10:47:17.693Z,36.69
2022-08-19T10:50:17.326Z,36.67
2022-08-19T10:52:49.910Z,36.24
2022-08-19T10:55:43.867Z,35.57
2022-08-19T10:58:50.192Z,36.04
2022-08-19T11:01:17.447Z,37.09
2022-08-19T11:03:46.792Z,36.80
2022-08-19T13:04:30.711Z,32.90
2022-08-19T13:07:10.053Z,31.91
2022-08-19T13:09:37.184Z,32.87
2022-08-19T13:12:08.282Z,32.32
2022-08-19T13:14:36.335Z,33.07
2022-08-19T13:17:09.850Z,32.88
2022-08-19T13:19:38.244Z,32.75
2022-08-19T13:22:07.318Z,32.91
2022-08-19T13:24:45.095Z,32.93
2022-08-19T13:27:14.340Z,32.71
2022-08-19T13:30:02.706Z,32.68
2022-08-19T13:32:49.407Z,32.53
2022-08-19T13:35:17.754Z,33.14
2022-08-19T13:37:45.296Z,32.42
2022-08-19T13:40:19.591Z,32.80
2022-08-19T13:42:48.507Z,32.58
2022-08-19T13:45:19.190Z,32.41
2022-08-19T13:47:50.520Z,32.25
2022-08-19T13:50:21.746Z,32.58
2022-08-19T13:52:48.946Z,32.20
2022-08-19T13:55:16.100Z,32.08
2022-08-19T13:57:56.678Z,32.15
2022-08-19T14:00:27.547Z,32.92
2022-08-19T14:03:18.351Z,32.73
2022-08-19T14:09:19.023Z,33.60
2022-08-19T14:11:47.803Z,34.51
2022-08-19T14:14:16.536Z,37.77
2022-08-19T14:16:58.094Z,40.78
2022-08-19T14:19:34.475Z,40.89
2022-08-19T14:22:09.397Z,41.86
2022-08-19T14:24:47.956Z,42.32
2022-08-19T14:27:16.666Z,42.37
2022-08-19T14:29:46.628Z,42.85
2022-08-19T14:46:29.904Z,44.54
2022-08-19T15:24:26.404Z,46.94
2022-08-19T15:37:50.745Z,46.94
2022-08-19T15:50:18.302Z,47.37
2022-08-19T15:52:54.614Z,47.54
2022-08-19T15:55:43.279Z,50.73
2022-08-19T16:11:45.749Z,49.02
2022-08-19T16:14:17.135Z,48.82
2022-08-19T16:19:28.201Z,48.69
2022-08-19T16:22:07.383Z,48.88
2022-08-19T16:24:34.446Z,48.95
2022-08-19T16:33:38.568Z,48.77
2022-08-19T16:43:44.654Z,49.90
2022-08-19T16:49:54.644Z,50.26
2022-08-19T16:52:27.255Z,50.70
2022-08-19T17:27:20.055Z,51.53
2022-08-19T17:30:00.224Z,51.13
2022-08-19T17:32:28.466Z,51.55
2022-08-19T17:34:57.520Z,51.49
2022-08-19T17:37:26.394Z,51.48
2022-08-19T17:39:55.875Z,51.66
2022-08-19T17:42:25.409Z,51.65
2022-08-19T17:44:54.501Z,51.83
2022-08-19T17:47:22.026Z,51.78
2022-08-19T17:49:49.094Z,51.84
2022-08-19T17:52:16.511Z,52.18
2022-08-19T17:54:44.907Z,52.34
2022-08-19T17:57:25.100Z,52.46
2022-08-19T18:00:19.133Z,52.55
2022-08-19T18:02:51.458Z,53.18
2022-08-19T18:05:23.864Z,53.04
2022-08-19T18:07:52.598Z,52.79
2022-08-19T18:11:23.787Z,53.29
2022-08-19T18:30:09.227Z,53.72
2022-08-19T18:32:54.038Z,53.96
2022-08-19T18:42:49.981Z,54.35
2022-08-19T18:45:37.672Z,53.99
2022-08-19T18:48:26.776Z,53.41
2022-08-19T18:50:58.933Z,53.92
2022-08-19T18:53:27.508Z,53.85
2022-08-19T18:55:58.443Z,54.11
2022-08-19T18:58:32.413Z,54.40
2022-08-19T19:01:10.771Z,53.97
2022-08-19T19:03:46.475Z,54.32
2022-08-19T19:06:25.976Z,54.33
2022-08-19T19:16:43.717Z,54.86
2022-08-19T19:28:56.806Z,55.72
2022-08-19T19:31:27.063Z,55.36
2022-08-19T19:37:02.649Z,55.86
